createdAt,value
2023-02-11T00:01:22.165Z,8.04
2023-02-11T00:03:48.567Z,7.61
2023-02-11T00:06:14.975Z,7.45
2023-02-11T00:08:41.384Z,7.96
2023-02-11T00:11:07.756Z,7.48
2023-02-11T00:13:34.162Z,7.87
2023-02-11T00:16:00.564Z,7.82
2023-02-11T00:18:26.974Z,7.63
2023-02-11T00:20:53.340Z,7.84
2023-02-11T00:23:19.690Z,7.72
2023-02-11T00:25:46.051Z,7.99
2023-02-11T00:28:12.500Z,7.94
2023-02-11T00:30:38.997Z,7.83
2023-02-11T00:33:05.450Z,7.82
2023-02-11T00:35:31.806Z,7.93
2023-02-11T00:37:58.242Z,7.91
2023-02-11T00:40:24.605Z,7.71
2023-02-11T00:42:51.024Z,7.87
2023-02-11T00:45:17.394Z,7.39
2023-02-11T00:47:43.781Z,7.31
2023-02-11T00:50:10.211Z,7.55
2023-02-11T00:52:36.615Z,7.67
2023-02-11T00:55:02.989Z,7.74
2023-02-11T00:57:29.388Z,7.74
2023-02-11T00:59:55.744Z,7.64
2023-02-11T01:02:22.095Z,7.02
2023-02-11T01:04:48.553Z,7.06
2023-02-11T01:07:14.937Z,7.49
2023-02-11T01:09:41.344Z,7.48
2023-02-11T01:12:07.773Z,7.42
2023-02-11T01:14:34.196Z,7.18
2023-02-11T01:17:00.538Z,6.96
2023-02-11T01:19:26.936Z,6.89
2023-02-11T01:21:53.294Z,6.97
2023-02-11T01:24:19.655Z,7.16
2023-02-11T01:26:46.037Z,7.40
2023-02-11T01:29:12.426Z,7.41
2023-02-11T01:31:38.944Z,7.09
2023-02-11T01:34:05.450Z,7.41
2023-02-11T01:36:31.884Z,7.37
2023-02-11T01:38:58.247Z,7.49
2023-02-11T01:41:24.641Z,7.66
2023-02-11T01:43:50.992Z,7.48
2023-02-11T01:46:17.477Z,7.46
2023-02-11T01:48:43.902Z,7.08
2023-02-11T01:51:10.300Z,6.82
2023-02-11T01:53:36.667Z,6.35
2023-02-11T01:56:03.055Z,5.98
2023-02-11T01:58:30.524Z,6.41
2023-02-11T02:00:56.874Z,6.21
2023-02-11T02:03:23.321Z,6.36
2023-02-11T02:05:49.921Z,6.65
2023-02-11T02:08:16.454Z,6.90
2023-02-11T02:10:42.842Z,7.43
2023-02-11T02:13:09.237Z,7.06
2023-02-11T02:15:35.599Z,6.80
2023-02-11T02:18:01.955Z,7.04
2023-02-11T02:20:28.360Z,7.53
2023-02-11T02:22:54.728Z,7.59
2023-02-11T02:25:21.116Z,7.51
2023-02-11T02:27:47.491Z,7.08
2023-02-11T02:30:13.886Z,7.05
2023-02-11T02:32:40.243Z,6.72
2023-02-11T02:35:06.674Z,7.09
2023-02-11T02:37:33.075Z,6.80
2023-02-11T02:39:59.435Z,6.46
2023-02-11T02:42:25.821Z,6.19
2023-02-11T02:44:52.249Z,6.57
2023-02-11T02:47:18.654Z,6.36
2023-02-11T02:49:45.012Z,6.99
2023-02-11T02:52:11.402Z,6.96
2023-02-11T02:54:37.801Z,6.51
2023-02-11T02:57:04.150Z,6.57
2023-02-11T02:59:30.538Z,6.40
2023-02-11T03:01:56.901Z,6.27
2023-02-11T03:04:23.247Z,6.24
2023-02-11T03:06:49.623Z,6.21
2023-02-11T03:09:15.981Z,6.27
2023-02-11T03:11:42.370Z,6.33
2023-02-11T03:14:08.788Z,6.77
2023-02-11T03:16:35.195Z,7.00
2023-02-11T03:19:01.616Z,7.28
2023-02-11T03:21:28.016Z,7.23
2023-02-11T03:23:54.375Z,7.21
2023-02-11T03:26:20.720Z,7.43
2023-02-11T03:28:47.082Z,7.49
2023-02-11T03:31:13.597Z,7.56
2023-02-11T03:33:40.019Z,7.21
2023-02-11T03:36:06.380Z,7.30
2023-02-11T03:38:32.779Z,7.26
2023-02-11T03:40:59.141Z,7.45
2023-02-11T03:43:25.524Z,7.24
2023-02-11T03:45:52.327Z,7.17
2023-02-11T03:48:18.985Z,7.09
2023-02-11T03:50:45.388Z,7.04
2023-02-11T03:53:11.783Z,7.20
2023-02-11T03:55:38.151Z,7.33
2023-02-11T03:58:04.542Z,7.26
2023-02-11T04:00:30.903Z,7.44
2023-02-11T04:02:57.311Z,6.91
2023-02-11T04:05:23.718Z,7.25
2023-02-11T04:07:50.075Z,6.99
2023-02-11T04:10:16.454Z,7.27
2023-02-11T04:12:42.852Z,7.20
2023-02-11T04:15:09.211Z,7.13
2023-02-11T04:17:35.647Z,7.35
2023-02-11T04:20:02.067Z,7.45
2023-02-11T04:22:28.458Z,7.42
2023-02-11T04:24:54.860Z,7.47
2023-02-11T04:27:21.261Z,7.32
2023-02-11T04:29:47.611Z,7.40
2023-02-11T04:32:13.987Z,7.52
2023-02-11T04:34:40.429Z,7.48
2023-02-11T04:37:06.819Z,7.37
2023-02-11T04:39:33.230Z,7.12
2023-02-11T04:41:59.600Z,7.26
2023-02-11T04:44:25.946Z,7.41
2023-02-11T04:46:52.299Z,7.09
2023-02-11T04:49:18.644Z,6.85
2023-02-11T04:51:46.510Z,6.19
2023-02-11T04:54:14.634Z,6.35
2023-02-11T04:56:41.032Z,6.53
2023-02-11T04:59:07.387Z,6.87
2023-02-11T05:01:33.835Z,6.45
2023-02-11T05:04:00.291Z,6.08
2023-02-11T05:06:26.716Z,5.95
2023-02-11T05:08:53.087Z,6.17
2023-02-11T05:11:19.449Z,6.50
2023-02-11T05:13:45.863Z,6.72
2023-02-11T05:16:12.266Z,6.84
2023-02-11T05:18:38.637Z,6.88
2023-02-11T05:21:05.023Z,6.94
2023-02-11T05:23:31.380Z,7.02
2023-02-11T05:25:57.754Z,6.99
2023-02-11T05:28:24.174Z,6.68
2023-02-11T05:30:50.577Z,6.88
2023-02-11T05:33:16.960Z,7.10
2023-02-11T05:35:43.339Z,6.46
2023-02-11T05:38:09.714Z,6.12
2023-02-11T05:40:36.064Z,6.77
2023-02-11T05:43:02.448Z,6.57
2023-02-11T05:45:28.864Z,6.27
2023-02-11T05:47:55.252Z,5.92
2023-02-11T05:50:21.616Z,5.53
2023-02-11T05:52:48.007Z,5.34
2023-02-11T05:55:14.480Z,6.11
2023-02-11T05:57:40.875Z,5.69
2023-02-11T06:00:07.246Z,6.29
2023-02-11T06:02:33.613Z,6.41
2023-02-11T06:05:00.056Z,6.54
2023-02-11T06:07:26.479Z,6.73
2023-02-11T06:09:52.844Z,6.54
2023-02-11T06:12:19.182Z,6.70
2023-02-11T06:14:45.544Z,6.86
2023-02-11T06:17:13.971Z,6.45
2023-02-11T06:19:41.682Z,6.33
2023-02-11T06:22:08.122Z,6.59
2023-02-11T06:24:58.481Z,6.81
2023-02-11T06:27:20.967Z,6.57
2023-02-11T06:29:47.306Z,6.79
2023-02-11T06:32:36.989Z,6.52
2023-02-11T06:35:00.046Z,6.54
2023-02-11T06:37:26.400Z,6.13
2023-02-11T06:39:52.758Z,5.36
2023-02-11T06:42:19.124Z,5.45
2023-02-11T06:44:45.513Z,5.56
2023-02-11T06:47:11.914Z,6.12
2023-02-11T06:49:38.327Z,5.51
2023-02-11T06:52:04.712Z,5.65
2023-02-11T06:54:31.077Z,5.62
2023-02-11T06:56:57.474Z,5.57
2023-02-11T06:59:23.830Z,6.27
2023-02-11T07:01:50.249Z,6.07
2023-02-11T07:04:16.615Z,6.24
2023-02-11T07:06:42.963Z,6.22
2023-02-11T07:09:09.364Z,6.51
2023-02-11T07:11:35.725Z,6.63
2023-02-11T07:14:02.136Z,6.67
2023-02-11T07:16:28.573Z,6.73
2023-02-11T07:18:55.027Z,6.79
2023-02-11T07:21:21.434Z,5.53
2023-02-11T07:23:47.795Z,5.54
2023-02-11T07:26:14.192Z,5.62
2023-02-11T07:28:40.596Z,5.32
2023-02-11T07:31:07.107Z,5.66
2023-02-11T07:33:33.588Z,5.83
2023-02-11T07:35:59.955Z,5.30
2023-02-11T07:38:26.355Z,4.88
2023-02-11T07:40:52.707Z,5.21
2023-02-11T07:43:19.097Z,4.75
2023-02-11T07:45:45.456Z,4.50
2023-02-11T07:48:11.794Z,4.87
2023-02-11T07:50:38.204Z,4.91
2023-02-11T07:53:04.573Z,4.86
2023-02-11T07:55:30.972Z,5.31
2023-02-11T07:57:57.339Z,5.16
2023-02-11T08:00:23.709Z,5.07
2023-02-11T08:02:50.065Z,5.43
2023-02-11T08:05:16.457Z,5.71
2023-02-11T08:07:42.859Z,5.67
2023-02-11T08:10:09.227Z,6.02
2023-02-11T08:12:35.589Z,5.65
2023-02-11T08:15:01.979Z,5.82
2023-02-11T08:17:28.355Z,5.87
2023-02-11T08:19:54.740Z,6.11
2023-02-11T08:22:21.092Z,6.46
2023-02-11T08:24:47.496Z,6.22
2023-02-11T08:27:13.907Z,6.44
2023-02-11T08:29:40.274Z,6.72
2023-02-11T08:32:06.690Z,6.51
2023-02-11T08:34:33.115Z,7.03
2023-02-11T08:36:59.488Z,7.11
2023-02-11T08:39:25.828Z,7.05
2023-02-11T08:41:52.177Z,7.11
2023-02-11T08:44:18.607Z,6.95
2023-02-11T08:46:45.005Z,7.13
2023-02-11T08:49:11.500Z,7.33
2023-02-11T08:51:37.920Z,7.32
2023-02-11T08:54:04.281Z,6.81
2023-02-11T08:56:30.635Z,6.83
2023-02-11T08:58:56.977Z,6.99
2023-02-11T09:01:23.399Z,7.08
2023-02-11T09:03:49.780Z,7.12
2023-02-11T09:06:16.178Z,7.09
2023-02-11T09:08:45.316Z,6.81
2023-02-11T09:11:12.629Z,7.10
2023-02-11T09:13:39.016Z,6.63
2023-02-11T09:16:05.385Z,5.94
2023-02-11T09:18:31.785Z,6.32
2023-02-11T09:20:58.149Z,5.84
2023-02-11T09:23:24.534Z,6.19
2023-02-11T09:25:51.171Z,6.42
2023-02-11T09:28:17.732Z,6.55
2023-02-11T09:30:44.231Z,6.95
2023-02-11T09:33:10.654Z,6.95
2023-02-11T09:35:39.358Z,7.55
2023-02-11T09:38:05.767Z,7.58
2023-02-11T09:40:32.130Z,7.76
2023-02-11T09:43:03.008Z,7.11
2023-02-11T09:45:30.508Z,7.06
2023-02-11T09:47:56.913Z,7.67
2023-02-11T09:50:23.267Z,7.91
2023-02-11T09:52:49.713Z,8.19
2023-02-11T09:55:16.136Z,8.21
2023-02-11T09:57:42.542Z,8.49
2023-02-11T10:00:08.942Z,8.79
2023-02-11T10:02:35.336Z,8.90
2023-02-11T10:05:01.740Z,8.68
2023-02-11T10:07:28.151Z,8.64
2023-02-11T10:09:54.560Z,8.42
2023-02-11T10:12:20.922Z,8.12
2023-02-11T10:14:47.325Z,8.35
2023-02-11T10:17:13.732Z,8.67
2023-02-11T10:19:40.115Z,8.78
2023-02-11T10:22:06.695Z,9.00
2023-02-11T10:24:33.050Z,8.73
2023-02-11T10:26:59.440Z,8.61
2023-02-11T10:29:25.803Z,8.87
2023-02-11T10:31:52.226Z,9.24
2023-02-11T10:34:18.636Z,8.79
2023-02-11T10:36:44.993Z,9.04
2023-02-11T10:39:11.385Z,9.70
2023-02-11T10:41:37.783Z,9.81
2023-02-11T10:44:04.193Z,9.71
2023-02-11T10:46:30.650Z,9.69
2023-02-11T10:48:57.074Z,9.54
2023-02-11T10:51:23.587Z,9.84
2023-02-11T10:53:49.969Z,10.02
2023-02-11T10:56:16.361Z,10.13
2023-02-11T10:58:42.903Z,10.31
2023-02-11T11:01:23.515Z,10.46
2023-02-11T11:03:50.913Z,10.35
2023-02-11T11:06:17.299Z,10.64
2023-02-11T11:08:43.660Z,10.49
2023-02-11T11:11:10.109Z,10.63
2023-02-11T11:13:36.521Z,10.52
2023-02-11T11:16:02.985Z,10.33
2023-02-11T11:18:29.401Z,9.91
2023-02-11T11:20:55.751Z,10.27
2023-02-11T11:23:22.133Z,10.26
2023-02-11T11:25:48.489Z,10.47
2023-02-11T11:28:14.902Z,10.70
2023-02-11T11:30:41.385Z,10.72
2023-02-11T11:33:07.774Z,10.85
2023-02-11T11:35:34.119Z,10.69
2023-02-11T11:38:01.956Z,10.29
2023-02-11T11:40:28.541Z,10.73
2023-02-11T11:42:54.908Z,10.83
2023-02-11T11:45:21.289Z,10.80
2023-02-11T11:47:47.684Z,10.91
2023-02-11T11:50:14.045Z,10.70
2023-02-11T11:52:40.443Z,10.95
2023-02-11T11:55:06.870Z,11.00
2023-02-11T11:57:33.241Z,11.01
2023-02-11T11:59:59.636Z,10.89
2023-02-11T12:02:26.150Z,10.90
2023-02-11T12:04:52.532Z,11.21
2023-02-11T12:07:18.884Z,10.62
2023-02-11T12:09:45.249Z,10.04
2023-02-11T12:12:11.650Z,10.19
2023-02-11T12:14:38.016Z,9.99
2023-02-11T12:17:04.363Z,10.57
2023-02-11T12:19:30.717Z,9.52
2023-02-11T12:21:57.110Z,10.25
2023-02-11T12:24:23.513Z,10.27
2023-02-11T12:26:49.974Z,10.82
2023-02-11T12:29:16.330Z,11.08
2023-02-11T12:31:42.691Z,10.00
2023-02-11T12:34:09.085Z,10.03
2023-02-11T12:36:35.477Z,10.21
2023-02-11T12:39:01.885Z,10.21
2023-02-11T12:41:28.264Z,10.89
2023-02-11T12:43:54.654Z,11.11
2023-02-11T12:46:21.155Z,11.31
2023-02-11T12:48:47.611Z,11.21
2023-02-11T12:51:13.979Z,10.67
2023-02-11T12:53:40.346Z,10.45
2023-02-11T12:56:06.819Z,11.00
2023-02-11T12:58:44.650Z,11.40
2023-02-11T13:01:12.059Z,11.51
2023-02-11T13:03:38.452Z,11.02
2023-02-11T13:06:04.807Z,10.82
2023-02-11T13:08:31.232Z,10.71
2023-02-11T13:10:57.584Z,11.15
2023-02-11T13:13:24.005Z,11.27
2023-02-11T13:15:50.368Z,11.65
2023-02-11T13:18:19.015Z,11.48
2023-02-11T13:20:45.592Z,10.98
2023-02-11T13:23:11.948Z,11.29
2023-02-11T13:25:38.294Z,10.95
2023-02-11T13:28:04.698Z,10.93
2023-02-11T13:30:31.104Z,10.95
2023-02-11T13:32:57.485Z,10.96
2023-02-11T13:35:23.841Z,10.82
2023-02-11T13:37:50.233Z,11.24
2023-02-11T13:40:16.601Z,11.01
2023-02-11T13:42:45.518Z,11.38
2023-02-11T13:45:11.908Z,11.61
2023-02-11T13:47:38.323Z,11.16
2023-02-11T13:50:04.708Z,11.60
2023-02-11T13:52:31.100Z,10.83
2023-02-11T13:54:57.459Z,10.85
2023-02-11T13:57:23.861Z,11.29
2023-02-11T13:59:50.224Z,11.69
2023-02-11T14:02:16.622Z,11.70
2023-02-11T14:04:43.074Z,11.43
2023-02-11T14:07:09.476Z,11.77
2023-02-11T14:09:35.887Z,11.46
2023-02-11T14:12:02.262Z,11.69
2023-02-11T14:14:28.660Z,12.05
2023-02-11T14:16:55.095Z,11.62
2023-02-11T14:19:21.504Z,11.52
2023-02-11T14:21:47.847Z,11.63
2023-02-11T14:24:14.233Z,11.14
2023-02-11T14:26:40.741Z,11.24
2023-02-11T14:29:07.129Z,11.81
2023-02-11T14:31:33.635Z,11.75
2023-02-11T14:34:00.125Z,12.22
2023-02-11T14:36:26.513Z,11.62
2023-02-11T14:38:52.921Z,11.37
2023-02-11T14:41:19.328Z,11.55
2023-02-11T14:43:45.731Z,11.38
2023-02-11T14:46:12.126Z,11.96
2023-02-11T14:48:38.518Z,12.06
2023-02-11T14:51:04.950Z,12.36
2023-02-11T14:53:31.320Z,11.97
2023-02-11T14:55:57.776Z,12.27
2023-02-11T14:58:24.198Z,12.34
2023-02-11T15:00:50.789Z,12.32
2023-02-11T15:03:17.384Z,11.89
2023-02-11T15:05:43.773Z,12.68
2023-02-11T15:08:10.163Z,12.45
2023-02-11T15:10:36.604Z,12.70
2023-02-11T15:13:03.032Z,12.51
2023-02-11T15:15:29.408Z,12.66
2023-02-11T15:17:55.767Z,12.70
2023-02-11T15:20:22.158Z,12.59
2023-02-11T15:22:48.523Z,12.67
2023-02-11T15:25:14.942Z,12.62
2023-02-11T15:27:41.333Z,12.54
2023-02-11T15:30:07.718Z,12.46
2023-02-11T15:32:34.168Z,12.27
2023-02-11T15:35:00.621Z,12.25
2023-02-11T15:37:26.984Z,12.51
2023-02-11T15:39:53.397Z,12.56
2023-02-11T15:42:19.805Z,12.27
2023-02-11T15:44:46.537Z,12.57
2023-02-11T15:47:14.366Z,12.73
2023-02-11T15:49:40.753Z,12.55
2023-02-11T15:52:07.353Z,12.42
2023-02-11T15:54:33.716Z,12.30
2023-02-11T15:57:00.152Z,12.26
2023-02-11T15:59:26.546Z,12.22
2023-02-11T16:01:52.949Z,11.87
2023-02-11T16:04:19.364Z,11.50
2023-02-11T16:06:45.820Z,11.44
2023-02-11T16:09:12.172Z,11.57
2023-02-11T16:11:38.564Z,11.45
2023-02-11T16:14:07.021Z,11.21
2023-02-11T16:16:33.628Z,11.19
2023-02-11T16:19:05.296Z,10.90
2023-02-11T16:21:32.266Z,10.73
2023-02-11T16:23:58.672Z,10.56
2023-02-11T16:26:25.046Z,10.34
2023-02-11T16:28:51.437Z,10.32
2023-02-11T16:31:17.864Z,10.16
2023-02-11T16:33:44.267Z,10.17
2023-02-11T16:36:10.659Z,10.46
2023-02-11T16:38:37.081Z,10.16
2023-02-11T16:41:03.482Z,9.95
2023-02-11T16:43:29.848Z,9.79
2023-02-11T16:45:56.175Z,9.55
2023-02-11T16:48:22.682Z,9.56
2023-02-11T16:50:51.483Z,9.43
2023-02-11T16:53:19.601Z,9.38
2023-02-11T16:55:45.998Z,9.39
2023-02-11T16:58:12.376Z,9.37
2023-02-11T17:00:38.849Z,9.37
2023-02-11T17:03:05.296Z,9.26
2023-02-11T17:05:37.840Z,9.23
2023-02-11T17:08:09.179Z,9.07
2023-02-11T17:10:35.589Z,9.21
2023-02-11T17:13:01.971Z,9.13
2023-02-11T17:15:28.318Z,9.05
2023-02-11T17:17:54.745Z,9.10
2023-02-11T17:20:21.144Z,9.26
2023-02-11T17:22:47.547Z,8.95
2023-02-11T17:25:13.947Z,8.82
2023-02-11T17:27:40.351Z,8.82
2023-02-11T17:30:06.756Z,8.69
2023-02-11T17:32:33.112Z,8.60
2023-02-11T17:34:59.513Z,8.70
2023-02-11T17:37:26.019Z,8.83
2023-02-11T17:39:52.372Z,8.63
2023-02-11T17:42:18.723Z,8.57
2023-02-11T17:44:45.116Z,8.35
2023-02-11T17:47:11.492Z,8.22
2023-02-11T17:49:37.876Z,8.18
2023-02-11T17:52:04.239Z,8.20
2023-02-11T17:54:30.666Z,8.28
2023-02-11T17:56:58.460Z,8.31
2023-02-11T17:59:25.039Z,8.28
2023-02-11T18:01:51.443Z,8.25
2023-02-11T18:04:17.992Z,8.15
2023-02-11T18:06:44.458Z,8.03
2023-02-11T18:09:10.807Z,8.01
2023-02-11T18:11:37.206Z,8.03
2023-02-11T18:14:03.608Z,8.19
2023-02-11T18:16:30.062Z,8.36
2023-02-11T18:18:56.476Z,8.23
2023-02-11T18:21:22.904Z,8.14
2023-02-11T18:23:49.268Z,8.12
2023-02-11T18:26:15.661Z,8.14
2023-02-11T18:28:45.306Z,8.18
2023-02-11T18:31:12.327Z,8.31
2023-02-11T18:33:38.704Z,8.31
2023-02-11T18:36:05.133Z,8.29
2023-02-11T18:38:31.497Z,8.06
2023-02-11T18:40:57.858Z,8.03
2023-02-11T18:43:24.246Z,8.21
2023-02-11T18:45:51.177Z,8.07
2023-02-11T18:48:17.813Z,8.08
2023-02-11T18:50:44.169Z,7.94
2023-02-11T18:53:10.525Z,8.03
2023-02-11T18:55:36.866Z,8.12
2023-02-11T18:58:03.269Z,8.38
2023-02-11T19:00:29.623Z,8.61
2023-02-11T19:02:55.968Z,8.00
2023-02-11T19:05:22.366Z,8.62
2023-02-11T19:07:48.762Z,8.43
2023-02-11T19:10:15.360Z,8.55
2023-02-11T19:12:41.791Z,8.91
2023-02-11T19:15:08.147Z,8.84
2023-02-11T19:17:34.498Z,8.38
2023-02-11T19:20:00.838Z,8.59
2023-02-11T19:22:27.191Z,8.42
2023-02-11T19:24:53.539Z,8.67
2023-02-11T19:27:19.885Z,8.76
2023-02-11T19:29:46.266Z,8.83
2023-02-11T19:32:12.675Z,8.53
2023-02-11T19:34:39.035Z,8.96
2023-02-11T19:37:05.426Z,8.77
2023-02-11T19:39:31.781Z,8.55
2023-02-11T19:41:58.155Z,8.59
2023-02-11T19:44:24.507Z,8.97
2023-02-11T19:46:50.896Z,9.11
2023-02-11T19:49:17.255Z,8.93
2023-02-11T19:51:43.617Z,8.50
2023-02-11T19:54:10.032Z,8.96
2023-02-11T19:56:36.399Z,9.07
2023-02-11T19:59:02.748Z,9.37
2023-02-11T20:01:29.208Z,9.48
2023-02-11T20:03:55.651Z,9.47
2023-02-11T20:06:22.057Z,9.64
2023-02-11T20:08:48.456Z,9.65
2023-02-11T20:11:14.857Z,9.45
2023-02-11T20:13:41.218Z,9.46
2023-02-11T20:16:07.633Z,9.67
2023-02-11T20:18:34.025Z,9.52
2023-02-11T20:21:00.387Z,9.12
2023-02-11T20:23:26.737Z,9.48
2023-02-11T20:25:53.439Z,9.80
2023-02-11T20:28:20.084Z,9.87
2023-02-11T20:30:46.528Z,9.79
2023-02-11T20:33:12.987Z,9.75
2023-02-11T20:35:39.334Z,9.92
2023-02-11T20:38:05.716Z,9.90
2023-02-11T20:40:32.104Z,9.99
2023-02-11T20:42:58.461Z,9.83
2023-02-11T20:45:24.844Z,9.76
2023-02-11T20:47:51.202Z,9.84
2023-02-11T20:50:17.546Z,9.77
2023-02-11T20:52:43.948Z,9.69
2023-02-11T20:55:10.369Z,9.75
2023-02-11T20:57:36.780Z,9.72
2023-02-11T21:00:03.231Z,9.59
2023-02-11T21:02:29.591Z,9.36
2023-02-11T21:04:55.973Z,9.39
2023-02-11T21:07:22.376Z,9.41
2023-02-11T21:09:48.743Z,9.52
2023-02-11T21:12:15.121Z,9.72
2023-02-11T21:14:41.486Z,9.57
2023-02-11T21:17:07.831Z,9.28
2023-02-11T21:19:34.191Z,9.45
2023-02-11T21:22:00.542Z,9.44
2023-02-11T21:24:26.938Z,9.52
2023-02-11T21:26:53.308Z,9.37
2023-02-11T21:29:19.720Z,9.25
2023-02-11T21:31:46.135Z,9.27
2023-02-11T21:34:12.564Z,9.25
2023-02-11T21:36:39.102Z,9.38
2023-02-11T21:39:05.473Z,9.13
2023-02-11T21:41:31.874Z,8.88
2023-02-11T21:43:58.287Z,8.88
2023-02-11T21:46:24.727Z,8.94
2023-02-11T21:48:51.103Z,8.97
2023-02-11T21:51:17.483Z,9.33
2023-02-11T21:53:43.813Z,9.18
2023-02-11T21:56:10.166Z,9.27
2023-02-11T21:58:36.558Z,9.32
2023-02-11T22:01:03.015Z,9.29
2023-02-11T22:03:29.406Z,8.95
2023-02-11T22:05:56.114Z,9.11
2023-02-11T22:08:22.650Z,9.37
2023-02-11T22:10:49.002Z,9.26
2023-02-11T22:13:15.359Z,9.16
2023-02-11T22:15:41.757Z,9.01
2023-02-11T22:18:08.124Z,9.02
2023-02-11T22:20:34.508Z,9.01
2023-02-11T22:23:00.907Z,9.18
2023-02-11T22:25:27.314Z,9.19
2023-02-11T22:27:53.701Z,9.39
2023-02-11T22:30:20.097Z,9.19
2023-02-11T22:32:46.499Z,9.31
2023-02-11T22:35:12.959Z,9.19
2023-02-11T22:37:39.355Z,9.23
2023-02-11T22:40:05.705Z,9.36
2023-02-11T22:42:32.069Z,9.18
2023-02-11T22:44:58.407Z,8.66
2023-02-11T22:47:24.827Z,7.94
2023-02-11T22:49:51.233Z,8.29
2023-02-11T22:52:17.636Z,8.24
2023-02-11T22:54:44.000Z,8.09
2023-02-11T22:57:10.394Z,8.18
2023-02-11T22:59:36.776Z,8.43
2023-02-11T23:02:03.285Z,8.29
2023-02-11T23:04:29.748Z,8.03
2023-02-11T23:06:56.102Z,8.17
2023-02-11T23:09:22.514Z,7.99
2023-02-11T23:11:48.902Z,7.90
2023-02-11T23:14:15.294Z,8.09
2023-02-11T23:16:41.780Z,7.85
2023-02-11T23:19:08.199Z,8.09
2023-02-11T23:21:34.588Z,8.10
2023-02-11T23:24:00.971Z,8.44
2023-02-11T23:26:27.354Z,8.62
2023-02-11T23:28:53.690Z,8.64
2023-02-11T23:31:20.113Z,8.67
2023-02-11T23:33:46.544Z,8.94
2023-02-11T23:36:12.895Z,8.91
2023-02-11T23:38:39.252Z,8.83
2023-02-11T23:41:05.610Z,9.11
2023-02-11T23:43:31.997Z,9.29
2023-02-11T23:45:58.493Z,9.32
2023-02-11T23:48:25.023Z,9.34
2023-02-11T23:50:51.416Z,9.36
2023-02-11T23:53:17.844Z,9.31
2023-02-11T23:55:44.247Z,9.29
2023-02-11T23:58:10.592Z,8.96
